sensor_id;sensor_type;location;lat;lon;timestamp;temperature;humidity
32877;DHT22;19226;51.600;8.034;2022-09-09T00:00:17;17.30;99.90
32877;DHT22;19226;51.600;8.034;2022-09-09T00:03:17;17.30;99.90
32877;DHT22;19226;51.600;8.034;2022-09-09T00:06:08;17.40;99.90
32877;DHT22;19226;51.600;8.034;2022-09-09T00:12:10;17.40;99.90
32877;DHT22;19226;51.600;8.034;2022-09-09T00:20:39;17.50;99.90
32877;DHT22;19226;51.600;8.034;2022-09-09T00:34:54;17.60;99.90
32877;DHT22;19226;51.600;8.034;2022-09-09T00:37:29;17.60;99.90
32877;DHT22;19226;51.600;8.034;2022-09-09T00:40:16;17.60;99.90
32877;DHT22;19226;51.600;8.034;2022-09-09T00:43:40;17.70;99.90
32877;DHT22;19226;51.600;8.034;2022-09-09T00:49:18;17.70;99.90
32877;DHT22;19226;51.600;8.034;2022-09-09T00:52:05;17.70;99.90
32877;DHT22;19226;51.600;8.034;2022-09-09T00:57:36;17.70;99.90
32877;DHT22;19226;51.600;8.034;2022-09-09T01:00:42;17.70;99.90
32877;DHT22;19226;51.600;8.034;2022-09-09T01:07:27;17.70;99.90
32877;DHT22;19226;51.600;8.034;2022-09-09T01:10:01;17.70;99.90
32877;DHT22;19226;51.600;8.034;2022-09-09T01:13:08;17.60;99.90
32877;DHT22;19226;51.600;8.034;2022-09-09T01:15:39;17.50;99.90
32877;DHT22;19226;51.600;8.034;2022-09-09T01:18:32;17.50;99.90
32877;DHT22;19226;51.600;8.034;2022-09-09T01:30:34;17.30;99.90
32877;DHT22;19226;51.600;8.034;2022-09-09T01:33:15;17.20;99.90
32877;DHT22;19226;51.600;8.034;2022-09-09T01:36:10;17.20;99.90
32877;DHT22;19226;51.600;8.034;2022-09-09T01:39:09;17.20;99.90
32877;DHT22;19226;51.600;8.034;2022-09-09T01:42:12;17.20;99.90
32877;DHT22;19226;51.600;8.034;2022-09-09T01:44:43;17.20;99.90
32877;DHT22;19226;51.600;8.034;2022-09-09T01:47:13;17.10;99.90
32877;DHT22;19226;51.600;8.034;2022-09-09T01:50:19;17.10;99.90
32877;DHT22;19226;51.600;8.034;2022-09-09T01:52:59;17.10;99.90
32877;DHT22;19226;51.600;8.034;2022-09-09T01:55:31;17.10;99.90
32877;DHT22;19226;51.600;8.034;2022-09-09T02:03:56;17.00;99.90
32877;DHT22;19226;51.600;8.034;2022-09-09T02:06:36;17.00;99.90
32877;DHT22;19226;51.600;8.034;2022-09-09T02:09:53;17.10;99.90
32877;DHT22;19226;51.600;8.034;2022-09-09T02:12:55;17.10;99.90
32877;DHT22;19226;51.600;8.034;2022-09-09T02:18:53;17.00;99.90
32877;DHT22;19226;51.600;8.034;2022-09-09T02:21:43;17.00;99.90
32877;DHT22;19226;51.600;8.034;2022-09-09T02:24:37;17.00;99.90
32877;DHT22;19226;51.600;8.034;2022-09-09T02:27:21;17.00;99.90
32877;DHT22;19226;51.600;8.034;2022-09-09T02:30:11;16.90;99.90
32877;DHT22;19226;51.600;8.034;2022-09-09T02:33:04;16.90;99.90
32877;DHT22;19226;51.600;8.034;2022-09-09T02:35:45;16.90;99.90
32877;DHT22;19226;51.600;8.034;2022-09-09T02:38:16;16.90;99.90
32877;DHT22;19226;51.600;8.034;2022-09-09T02:41:13;16.80;99.90
32877;DHT22;19226;51.600;8.034;2022-09-09T02:43:39;16.80;99.90
32877;DHT22;19226;51.600;8.034;2022-09-09T02:49:19;16.80;99.90
32877;DHT22;19226;51.600;8.034;2022-09-09T02:52:26;16.80;99.90
32877;DHT22;19226;51.600;8.034;2022-09-09T02:54:59;16.80;99.90
32877;DHT22;19226;51.600;8.034;2022-09-09T02:57:28;16.90;99.90
32877;DHT22;19226;51.600;8.034;2022-09-09T03:00:00;16.90;99.90
32877;DHT22;19226;51.600;8.034;2022-09-09T03:02:30;16.90;99.90
32877;DHT22;19226;51.600;8.034;2022-09-09T03:05:01;16.90;99.90
32877;DHT22;19226;51.600;8.034;2022-09-09T03:07:28;16.90;99.90
32877;DHT22;19226;51.600;8.034;2022-09-09T03:10:16;17.00;99.90
32877;DHT22;19226;51.600;8.034;2022-09-09T03:12:43;17.00;99.90
32877;DHT22;19226;51.600;8.034;2022-09-09T03:15:11;17.00;99.90
32877;DHT22;19226;51.600;8.034;2022-09-09T03:17:41;17.00;99.90
32877;DHT22;19226;51.600;8.034;2022-09-09T03:20:10;17.00;99.90
32877;DHT22;19226;51.600;8.034;2022-09-09T03:22:37;17.10;99.90
32877;DHT22;19226;51.600;8.034;2022-09-09T03:25:07;17.10;99.90
32877;DHT22;19226;51.600;8.034;2022-09-09T03:27:35;17.10;99.90
32877;DHT22;19226;51.600;8.034;2022-09-09T03:30:03;17.10;99.90
32877;DHT22;19226;51.600;8.034;2022-09-09T03:32:30;17.10;99.90
32877;DHT22;19226;51.600;8.034;2022-09-09T03:34:58;17.10;99.90
32877;DHT22;19226;51.600;8.034;2022-09-09T03:37:25;17.10;99.90
32877;DHT22;19226;51.600;8.034;2022-09-09T03:39:52;17.10;99.90
32877;DHT22;19226;51.600;8.034;2022-09-09T03:42:24;17.10;99.90
32877;DHT22;19226;51.600;8.034;2022-09-09T03:44:52;17.10;99.90
32877;DHT22;19226;51.600;8.034;2022-09-09T03:47:41;17.10;99.90
32877;DHT22;19226;51.600;8.034;2022-09-09T03:50:08;17.10;99.90
32877;DHT22;19226;51.600;8.034;2022-09-09T03:52:39;17.00;99.90
32877;DHT22;19226;51.600;8.034;2022-09-09T03:55:09;17.10;99.90
32877;DHT22;19226;51.600;8.034;2022-09-09T03:57:36;17.00;99.90
32877;DHT22;19226;51.600;8.034;2022-09-09T04:00:07;17.00;99.90
32877;DHT22;19226;51.600;8.034;2022-09-09T04:02:42;17.00;99.90
32877;DHT22;19226;51.600;8.034;2022-09-09T04:05:12;17.10;99.90
32877;DHT22;19226;51.600;8.034;2022-09-09T04:07:41;17.10;99.90
32877;DHT22;19226;51.600;8.034;2022-09-09T04:10:10;17.00;99.90
32877;DHT22;19226;51.600;8.034;2022-09-09T04:12:38;17.00;99.90
32877;DHT22;19226;51.600;8.034;2022-09-09T04:15:05;17.00;99.90
32877;DHT22;19226;51.600;8.034;2022-09-09T04:17:32;17.00;99.90
32877;DHT22;19226;51.600;8.034;2022-09-09T04:19:59;17.00;99.90
32877;DHT22;19226;51.600;8.034;2022-09-09T04:22:27;17.00;99.90
32877;DHT22;19226;51.600;8.034;2022-09-09T04:24:54;17.00;99.90
32877;DHT22;19226;51.600;8.034;2022-09-09T04:27:24;17.10;99.90
32877;DHT22;19226;51.600;8.034;2022-09-09T04:30:09;17.10;99.90
32877;DHT22;19226;51.600;8.034;2022-09-09T04:32:37;17.10;99.90
32877;DHT22;19226;51.600;8.034;2022-09-09T04:35:03;17.10;99.90
32877;DHT22;19226;51.600;8.034;2022-09-09T04:37:36;17.10;99.90
32877;DHT22;19226;51.600;8.034;2022-09-09T04:40:02;17.10;99.90
32877;DHT22;19226;51.600;8.034;2022-09-09T04:42:30;17.10;99.90
32877;DHT22;19226;51.600;8.034;2022-09-09T04:44:58;17.20;99.90
32877;DHT22;19226;51.600;8.034;2022-09-09T04:47:28;17.20;99.90
32877;DHT22;19226;51.600;8.034;2022-09-09T04:50:07;17.20;99.90
32877;DHT22;19226;51.600;8.034;2022-09-09T04:52:35;17.20;99.90
32877;DHT22;19226;51.600;8.034;2022-09-09T04:55:07;17.20;99.90
32877;DHT22;19226;51.600;8.034;2022-09-09T04:57:37;17.20;99.90
32877;DHT22;19226;51.600;8.034;2022-09-09T05:00:04;17.20;99.90
32877;DHT22;19226;51.600;8.034;2022-09-09T05:02:37;17.20;99.90
32877;DHT22;19226;51.600;8.034;2022-09-09T05:09:12;17.30;99.90
32877;DHT22;19226;51.600;8.034;2022-09-09T05:11:38;17.20;99.90
32877;DHT22;19226;51.600;8.034;2022-09-09T05:14:12;17.20;99.90
32877;DHT22;19226;51.600;8.034;2022-09-09T05:16:38;17.20;99.90
32877;DHT22;19226;51.600;8.034;2022-09-09T05:19:07;17.20;99.90
32877;DHT22;19226;51.600;8.034;2022-09-09T05:21:43;17.20;99.90
32877;DHT22;19226;51.600;8.034;2022-09-09T05:24:10;17.20;99.90
32877;DHT22;19226;51.600;8.034;2022-09-09T05:26:37;17.20;99.90
32877;DHT22;19226;51.600;8.034;2022-09-09T05:29:22;17.20;99.90
32877;DHT22;19226;51.600;8.034;2022-09-09T05:31:48;17.20;99.90
32877;DHT22;19226;51.600;8.034;2022-09-09T05:37:54;17.20;99.90
32877;DHT22;19226;51.600;8.034;2022-09-09T05:40:26;17.20;99.90
32877;DHT22;19226;51.600;8.034;2022-09-09T05:42:52;17.20;99.90
32877;DHT22;19226;51.600;8.034;2022-09-09T05:49:07;17.30;99.90
32877;DHT22;19226;51.600;8.034;2022-09-09T05:51:50;17.30;99.90
32877;DHT22;19226;51.600;8.034;2022-09-09T05:54:18;17.30;99.90
32877;DHT22;19226;51.600;8.034;2022-09-09T05:56:48;17.30;99.90
32877;DHT22;19226;51.600;8.034;2022-09-09T05:59:22;17.30;99.90
32877;DHT22;19226;51.600;8.034;2022-09-09T06:04:59;17.40;99.90
32877;DHT22;19226;51.600;8.034;2022-09-09T06:07:28;17.40;99.90
32877;DHT22;19226;51.600;8.034;2022-09-09T06:09:54;17.50;99.90
32877;DHT22;19226;51.600;8.034;2022-09-09T06:12:21;17.50;99.90
32877;DHT22;19226;51.600;8.034;2022-09-09T06:14:47;17.50;99.90
32877;DHT22;19226;51.600;8.034;2022-09-09T06:17:15;17.60;99.90
32877;DHT22;19226;51.600;8.034;2022-09-09T06:19:44;17.60;99.90
32877;DHT22;19226;51.600;8.034;2022-09-09T06:22:14;17.60;99.90
32877;DHT22;19226;51.600;8.034;2022-09-09T06:24:44;17.70;99.90
32877;DHT22;19226;51.600;8.034;2022-09-09T06:27:14;17.70;99.90
32877;DHT22;19226;51.600;8.034;2022-09-09T06:29:41;17.80;99.90
32877;DHT22;19226;51.600;8.034;2022-09-09T06:32:10;17.80;99.90
32877;DHT22;19226;51.600;8.034;2022-09-09T06:34:36;17.90;99.90
32877;DHT22;19226;51.600;8.034;2022-09-09T06:37:03;17.80;99.90
32877;DHT22;19226;51.600;8.034;2022-09-09T06:39:37;17.90;99.90
32877;DHT22;19226;51.600;8.034;2022-09-09T06:42:03;17.90;99.90
32877;DHT22;19226;51.600;8.034;2022-09-09T06:44:54;18.00;99.90
32877;DHT22;19226;51.600;8.034;2022-09-09T06:47:48;18.00;99.90
32877;DHT22;19226;51.600;8.034;2022-09-09T06:50:15;18.00;99.90
32877;DHT22;19226;51.600;8.034;2022-09-09T06:52:46;18.00;99.90
32877;DHT22;19226;51.600;8.034;2022-09-09T06:55:20;18.00;99.90
32877;DHT22;19226;51.600;8.034;2022-09-09T06:57:46;18.10;99.90
32877;DHT22;19226;51.600;8.034;2022-09-09T07:00:17;18.10;99.90
32877;DHT22;19226;51.600;8.034;2022-09-09T07:02:44;18.20;99.90
32877;DHT22;19226;51.600;8.034;2022-09-09T07:05:12;18.20;99.90
32877;DHT22;19226;51.600;8.034;2022-09-09T07:07:41;18.30;99.90
32877;DHT22;19226;51.600;8.034;2022-09-09T07:10:09;18.30;99.90
32877;DHT22;19226;51.600;8.034;2022-09-09T07:12:39;18.40;99.90
32877;DHT22;19226;51.600;8.034;2022-09-09T07:15:09;18.40;99.90
32877;DHT22;19226;51.600;8.034;2022-09-09T07:17:38;18.40;99.90
32877;DHT22;19226;51.600;8.034;2022-09-09T07:20:04;18.50;99.90
32877;DHT22;19226;51.600;8.034;2022-09-09T07:22:32;18.50;99.90
32877;DHT22;19226;51.600;8.034;2022-09-09T07:25:04;18.50;99.90
32877;DHT22;19226;51.600;8.034;2022-09-09T07:27:30;18.50;99.90
32877;DHT22;19226;51.600;8.034;2022-09-09T07:29:59;18.50;99.90
32877;DHT22;19226;51.600;8.034;2022-09-09T07:32:53;18.50;99.90
32877;DHT22;19226;51.600;8.034;2022-09-09T07:35:22;18.60;99.90
32877;DHT22;19226;51.600;8.034;2022-09-09T07:37:48;18.50;99.90
32877;DHT22;19226;51.600;8.034;2022-09-09T07:40:14;18.60;99.90
32877;DHT22;19226;51.600;8.034;2022-09-09T07:42:43;18.60;99.90
32877;DHT22;19226;51.600;8.034;2022-09-09T07:48:23;18.70;99.90
32877;DHT22;19226;51.600;8.034;2022-09-09T07:54:03;18.80;99.90
32877;DHT22;19226;51.600;8.034;2022-09-09T07:56:32;18.70;99.90
32877;DHT22;19226;51.600;8.034;2022-09-09T07:59:11;18.80;99.90
32877;DHT22;19226;51.600;8.034;2022-09-09T08:01:43;18.80;99.90
32877;DHT22;19226;51.600;8.034;2022-09-09T08:04:14;18.70;99.90
32877;DHT22;19226;51.600;8.034;2022-09-09T08:06:51;18.70;99.90
32877;DHT22;19226;51.600;8.034;2022-09-09T08:09:21;18.60;99.90
32877;DHT22;19226;51.600;8.034;2022-09-09T08:11:48;18.60;99.90
32877;DHT22;19226;51.600;8.034;2022-09-09T08:14:16;18.60;99.90
32877;DHT22;19226;51.600;8.034;2022-09-09T08:16:48;18.50;99.90
32877;DHT22;19226;51.600;8.034;2022-09-09T08:19:18;18.60;99.90
32877;DHT22;19226;51.600;8.034;2022-09-09T08:21:52;18.60;99.90
32877;DHT22;19226;51.600;8.034;2022-09-09T08:24:18;18.70;99.90
32877;DHT22;19226;51.600;8.034;2022-09-09T08:26:48;18.80;99.90
32877;DHT22;19226;51.600;8.034;2022-09-09T08:29:17;18.80;99.90
32877;DHT22;19226;51.600;8.034;2022-09-09T08:31:54;18.80;99.90
32877;DHT22;19226;51.600;8.034;2022-09-09T08:34:21;18.80;99.90
32877;DHT22;19226;51.600;8.034;2022-09-09T08:37:03;18.90;99.90
32877;DHT22;19226;51.600;8.034;2022-09-09T08:39:34;18.90;99.90
32877;DHT22;19226;51.600;8.034;2022-09-09T08:42:29;18.90;99.90
32877;DHT22;19226;51.600;8.034;2022-09-09T08:45:27;19.00;99.90
32877;DHT22;19226;51.600;8.034;2022-09-09T08:48:08;19.00;99.90
32877;DHT22;19226;51.600;8.034;2022-09-09T08:50:56;19.00;99.90
32877;DHT22;19226;51.600;8.034;2022-09-09T08:53:39;19.10;99.90
32877;DHT22;19226;51.600;8.034;2022-09-09T08:56:09;19.10;99.90
32877;DHT22;19226;51.600;8.034;2022-09-09T08:58:50;19.10;99.90
32877;DHT22;19226;51.600;8.034;2022-09-09T09:01:41;19.10;99.90
32877;DHT22;19226;51.600;8.034;2022-09-09T09:10:46;19.30;99.90
32877;DHT22;19226;51.600;8.034;2022-09-09T09:13:45;19.30;99.90
32877;DHT22;19226;51.600;8.034;2022-09-09T09:19:01;19.40;99.90
32877;DHT22;19226;51.600;8.034;2022-09-09T09:21:43;19.50;99.90
32877;DHT22;19226;51.600;8.034;2022-09-09T09:24:20;19.60;99.90
32877;DHT22;19226;51.600;8.034;2022-09-09T09:26:51;19.80;99.90
32877;DHT22;19226;51.600;8.034;2022-09-09T09:29:20;19.90;99.90
32877;DHT22;19226;51.600;8.034;2022-09-09T09:31:52;19.90;99.90
32877;DHT22;19226;51.600;8.034;2022-09-09T09:34:24;20.00;99.90
32877;DHT22;19226;51.600;8.034;2022-09-09T09:36:58;20.10;99.90
32877;DHT22;19226;51.600;8.034;2022-09-09T09:39:31;20.20;99.90
32877;DHT22;19226;51.600;8.034;2022-09-09T09:42:13;20.30;99.90
32877;DHT22;19226;51.600;8.034;2022-09-09T09:44:44;20.40;99.90
32877;DHT22;19226;51.600;8.034;2022-09-09T09:47:18;20.50;99.90
32877;DHT22;19226;51.600;8.034;2022-09-09T09:49:59;20.60;99.90
32877;DHT22;19226;51.600;8.034;2022-09-09T09:52:35;20.70;99.90
32877;DHT22;19226;51.600;8.034;2022-09-09T09:55:04;20.90;99.90
32877;DHT22;19226;51.600;8.034;2022-09-09T09:57:39;21.00;99.90
32877;DHT22;19226;51.600;8.034;2022-09-09T10:00:28;21.10;99.90
32877;DHT22;19226;51.600;8.034;2022-09-09T10:03:21;21.20;99.90
32877;DHT22;19226;51.600;8.034;2022-09-09T10:05:48;21.40;99.90
32877;DHT22;19226;51.600;8.034;2022-09-09T10:08:17;21.40;99.90
32877;DHT22;19226;51.600;8.034;2022-09-09T10:14:11;21.80;99.90
32877;DHT22;19226;51.600;8.034;2022-09-09T10:17:08;21.80;99.90
32877;DHT22;19226;51.600;8.034;2022-09-09T10:22:49;22.00;99.90
32877;DHT22;19226;51.600;8.034;2022-09-09T10:42:58;21.70;99.90
32877;DHT22;19226;51.600;8.034;2022-09-09T10:51:26;21.80;99.90
32877;DHT22;19226;51.600;8.034;2022-09-09T10:54:02;21.80;99.90
32877;DHT22;19226;51.600;8.034;2022-09-09T10:56:34;21.90;99.90
32877;DHT22;19226;51.600;8.034;2022-09-09T10:59:09;22.00;99.90
32877;DHT22;19226;51.600;8.034;2022-09-09T11:01:43;22.20;99.90
32877;DHT22;19226;51.600;8.034;2022-09-09T11:04:22;22.30;99.90
32877;DHT22;19226;51.600;8.034;2022-09-09T11:06:54;22.30;99.90
32877;DHT22;19226;51.600;8.034;2022-09-09T11:09:25;22.50;99.90
32877;DHT22;19226;51.600;8.034;2022-09-09T11:11:55;22.70;99.90
32877;DHT22;19226;51.600;8.034;2022-09-09T11:14:36;22.80;99.90
32877;DHT22;19226;51.600;8.034;2022-09-09T11:17:11;23.00;99.90
32877;DHT22;19226;51.600;8.034;2022-09-09T11:19:45;23.10;99.90
32877;DHT22;19226;51.600;8.034;2022-09-09T11:24:53;23.30;99.90
32877;DHT22;19226;51.600;8.034;2022-09-09T11:30:26;23.40;99.90
32877;DHT22;19226;51.600;8.034;2022-09-09T11:38:27;23.90;99.90
32877;DHT22;19226;51.600;8.034;2022-09-09T11:41:03;23.90;99.90
32877;DHT22;19226;51.600;8.034;2022-09-09T11:43:51;24.00;99.90
32877;DHT22;19226;51.600;8.034;2022-09-09T11:46:20;24.00;99.90
32877;DHT22;19226;51.600;8.034;2022-09-09T11:49:05;23.90;99.90
32877;DHT22;19226;51.600;8.034;2022-09-09T11:51:33;23.80;99.90
32877;DHT22;19226;51.600;8.034;2022-09-09T11:54:24;23.80;99.90
32877;DHT22;19226;51.600;8.034;2022-09-09T11:56:50;23.70;99.90
32877;DHT22;19226;51.600;8.034;2022-09-09T12:04:55;23.20;99.90
32877;DHT22;19226;51.600;8.034;2022-09-09T12:07:41;22.90;99.90
32877;DHT22;19226;51.600;8.034;2022-09-09T12:10:33;22.80;99.90
32877;DHT22;19226;51.600;8.034;2022-09-09T12:16:56;22.70;99.90
32877;DHT22;19226;51.600;8.034;2022-09-09T12:19:43;22.80;99.90
32877;DHT22;19226;51.600;8.034;2022-09-09T12:23:00;23.00;99.90
32877;DHT22;19226;51.600;8.034;2022-09-09T12:28:22;23.10;99.90
32877;DHT22;19226;51.600;8.034;2022-09-09T12:31:06;23.20;99.90
32877;DHT22;19226;51.600;8.034;2022-09-09T12:33:38;23.30;99.90
32877;DHT22;19226;51.600;8.034;2022-09-09T12:36:15;23.40;99.90
32877;DHT22;19226;51.600;8.034;2022-09-09T12:38:43;23.50;99.90
32877;DHT22;19226;51.600;8.034;2022-09-09T12:41:24;23.60;99.90
32877;DHT22;19226;51.600;8.034;2022-09-09T12:43:51;23.70;99.90
32877;DHT22;19226;51.600;8.034;2022-09-09T12:46:41;23.70;99.90
32877;DHT22;19226;51.600;8.034;2022-09-09T12:49:28;23.80;99.90
32877;DHT22;19226;51.600;8.034;2022-09-09T12:52:35;23.90;99.90
32877;DHT22;19226;51.600;8.034;2022-09-09T13:16:38;24.30;99.90
32877;DHT22;19226;51.600;8.034;2022-09-09T13:19:15;24.20;99.90
32877;DHT22;19226;51.600;8.034;2022-09-09T13:31:39;24.00;99.90
32877;DHT22;19226;51.600;8.034;2022-09-09T13:37:00;23.90;99.90
32877;DHT22;19226;51.600;8.034;2022-09-09T13:39:34;23.90;99.90
32877;DHT22;19226;51.600;8.034;2022-09-09T13:42:04;23.80;99.90
32877;DHT22;19226;51.600;8.034;2022-09-09T13:44:47;23.80;99.90
32877;DHT22;19226;51.600;8.034;2022-09-09T14:33:09;23.40;99.90
32877;DHT22;19226;51.600;8.034;2022-09-09T14:35:45;23.40;99.90
32877;DHT22;19226;51.600;8.034;2022-09-09T14:38:34;23.40;99.90
32877;DHT22;19226;51.600;8.034;2022-09-09T14:41:11;23.40;99.90
32877;DHT22;19226;51.600;8.034;2022-09-09T14:43:39;23.40;99.90
32877;DHT22;19226;51.600;8.034;2022-09-09T14:46:13;23.40;99.90
32877;DHT22;19226;51.600;8.034;2022-09-09T14:49:09;23.40;99.90
32877;DHT22;19226;51.600;8.034;2022-09-09T14:51:42;23.40;99.90
32877;DHT22;19226;51.600;8.034;2022-09-09T14:54:30;23.30;99.90
32877;DHT22;19226;51.600;8.034;2022-09-09T14:57:07;23.40;99.90
32877;DHT22;19226;51.600;8.034;2022-09-09T14:59:37;23.40;99.90
32877;DHT22;19226;51.600;8.034;2022-09-09T15:02:09;23.40;99.90
32877;DHT22;19226;51.600;8.034;2022-09-09T15:04:42;23.40;99.90
32877;DHT22;19226;51.600;8.034;2022-09-09T15:07:11;23.30;99.90
32877;DHT22;19226;51.600;8.034;2022-09-09T15:09:40;23.20;99.90
32877;DHT22;19226;51.600;8.034;2022-09-09T15:12:21;23.10;99.90
32877;DHT22;19226;51.600;8.034;2022-09-09T15:15:03;23.00;99.90
32877;DHT22;19226;51.600;8.034;2022-09-09T15:17:31;23.00;99.90
32877;DHT22;19226;51.600;8.034;2022-09-09T15:19:59;22.90;99.90
32877;DHT22;19226;51.600;8.034;2022-09-09T15:22:32;22.80;99.90
32877;DHT22;19226;51.600;8.034;2022-09-09T15:25:00;22.60;99.90
32877;DHT22;19226;51.600;8.034;2022-09-09T15:27:27;22.50;99.90
32877;DHT22;19226;51.600;8.034;2022-09-09T15:30:14;22.60;99.90
32877;DHT22;19226;51.600;8.034;2022-09-09T15:32:47;22.60;99.90
32877;DHT22;19226;51.600;8.034;2022-09-09T15:35:26;22.60;99.90
32877;DHT22;19226;51.600;8.034;2022-09-09T15:40:59;22.50;99.90
32877;DHT22;19226;51.600;8.034;2022-09-09T15:43:26;22.30;99.90
32877;DHT22;19226;51.600;8.034;2022-09-09T15:46:02;22.20;99.90
32877;DHT22;19226;51.600;8.034;2022-09-09T15:48:33;21.90;99.90
32877;DHT22;19226;51.600;8.034;2022-09-09T15:51:04;21.70;99.90
32877;DHT22;19226;51.600;8.034;2022-09-09T15:53:31;21.50;99.90
32877;DHT22;19226;51.600;8.034;2022-09-09T15:56:17;21.30;99.90
32877;DHT22;19226;51.600;8.034;2022-09-09T15:58:43;21.10;99.90
32877;DHT22;19226;51.600;8.034;2022-09-09T16:01:10;21.00;99.90
32877;DHT22;19226;51.600;8.034;2022-09-09T16:03:40;20.90;99.90
32877;DHT22;19226;51.600;8.034;2022-09-09T16:06:36;20.80;99.90
32877;DHT22;19226;51.600;8.034;2022-09-09T16:09:05;20.80;99.90
32877;DHT22;19226;51.600;8.034;2022-09-09T16:11:34;20.70;99.90
32877;DHT22;19226;51.600;8.034;2022-09-09T16:14:04;20.60;99.90
32877;DHT22;19226;51.600;8.034;2022-09-09T16:16:32;20.60;99.90
32877;DHT22;19226;51.600;8.034;2022-09-09T16:19:03;20.50;99.90
32877;DHT22;19226;51.600;8.034;2022-09-09T16:21:32;20.50;99.90
32877;DHT22;19226;51.600;8.034;2022-09-09T16:24:19;20.50;99.90
32877;DHT22;19226;51.600;8.034;2022-09-09T16:26:48;20.40;99.90
32877;DHT22;19226;51.600;8.034;2022-09-09T16:29:33;20.30;99.90
32877;DHT22;19226;51.600;8.034;2022-09-09T16:32:00;20.30;99.90
32877;DHT22;19226;51.600;8.034;2022-09-09T16:34:26;20.30;99.90
32877;DHT22;19226;51.600;8.034;2022-09-09T16:36:52;20.10;99.90
32877;DHT22;19226;51.600;8.034;2022-09-09T16:39:20;20.10;99.90
32877;DHT22;19226;51.600;8.034;2022-09-09T16:41:47;20.00;99.90
32877;DHT22;19226;51.600;8.034;2022-09-09T16:44:16;19.90;99.90
32877;DHT22;19226;51.600;8.034;2022-09-09T16:46:46;19.80;99.90
32877;DHT22;19226;51.600;8.034;2022-09-09T16:49:14;19.70;99.90
32877;DHT22;19226;51.600;8.034;2022-09-09T16:52:03;19.60;99.90
32877;DHT22;19226;51.600;8.034;2022-09-09T16:54:29;19.40;99.90
32877;DHT22;19226;51.600;8.034;2022-09-09T16:56:56;19.30;99.90
32877;DHT22;19226;51.600;8.034;2022-09-09T16:59:23;19.30;99.90
32877;DHT22;19226;51.600;8.034;2022-09-09T17:01:52;19.20;99.90
32877;DHT22;19226;51.600;8.034;2022-09-09T17:04:22;19.20;99.90
32877;DHT22;19226;51.600;8.034;2022-09-09T17:06:53;19.10;99.90
32877;DHT22;19226;51.600;8.034;2022-09-09T17:09:21;19.00;99.90
32877;DHT22;19226;51.600;8.034;2022-09-09T17:11:49;19.00;99.90
32877;DHT22;19226;51.600;8.034;2022-09-09T17:14:20;18.90;99.90
32877;DHT22;19226;51.600;8.034;2022-09-09T17:16:47;18.90;99.90
32877;DHT22;19226;51.600;8.034;2022-09-09T17:19:13;18.90;99.90
32877;DHT22;19226;51.600;8.034;2022-09-09T17:21:40;19.00;99.90
32877;DHT22;19226;51.600;8.034;2022-09-09T17:24:06;19.00;99.90
32877;DHT22;19226;51.600;8.034;2022-09-09T17:26:34;18.90;99.90
32877;DHT22;19226;51.600;8.034;2022-09-09T17:29:02;18.80;99.90
32877;DHT22;19226;51.600;8.034;2022-09-09T17:31:30;18.70;99.90
32877;DHT22;19226;51.600;8.034;2022-09-09T17:33:58;18.70;99.90
32877;DHT22;19226;51.600;8.034;2022-09-09T17:36:30;18.60;99.90
32877;DHT22;19226;51.600;8.034;2022-09-09T17:38:57;18.50;99.90
32877;DHT22;19226;51.600;8.034;2022-09-09T17:41:32;18.40;99.90
32877;DHT22;19226;51.600;8.034;2022-09-09T17:43:59;18.30;99.90
32877;DHT22;19226;51.600;8.034;2022-09-09T17:46:35;18.30;99.90
32877;DHT22;19226;51.600;8.034;2022-09-09T17:49:05;18.20;99.90
32877;DHT22;19226;51.600;8.034;2022-09-09T17:51:35;18.20;99.90
32877;DHT22;19226;51.600;8.034;2022-09-09T17:54:08;18.10;99.90
32877;DHT22;19226;51.600;8.034;2022-09-09T17:56:37;18.00;99.90
32877;DHT22;19226;51.600;8.034;2022-09-09T17:59:07;18.00;99.90
32877;DHT22;19226;51.600;8.034;2022-09-09T18:01:37;17.90;99.90
32877;DHT22;19226;51.600;8.034;2022-09-09T18:04:09;17.80;99.90
32877;DHT22;19226;51.600;8.034;2022-09-09T18:06:42;17.80;99.90
32877;DHT22;19226;51.600;8.034;2022-09-09T18:12:24;17.70;99.90
32877;DHT22;19226;51.600;8.034;2022-09-09T18:15:08;17.70;99.90
32877;DHT22;19226;51.600;8.034;2022-09-09T18:17:41;17.70;99.90
32877;DHT22;19226;51.600;8.034;2022-09-09T18:20:13;17.70;99.90
32877;DHT22;19226;51.600;8.034;2022-09-09T18:22:44;17.60;99.90
32877;DHT22;19226;51.600;8.034;2022-09-09T18:25:31;17.60;99.90
32877;DHT22;19226;51.600;8.034;2022-09-09T18:28:08;17.60;99.90
32877;DHT22;19226;51.600;8.034;2022-09-09T18:30:38;17.70;99.90
32877;DHT22;19226;51.600;8.034;2022-09-09T18:33:10;17.70;99.90
32877;DHT22;19226;51.600;8.034;2022-09-09T18:35:37;17.70;99.90
32877;DHT22;19226;51.600;8.034;2022-09-09T18:38:25;17.70;99.90
32877;DHT22;19226;51.600;8.034;2022-09-09T18:40:58;17.60;99.90
32877;DHT22;19226;51.600;8.034;2022-09-09T18:46:43;17.50;99.90
32877;DHT22;19226;51.600;8.034;2022-09-09T18:49:19;17.40;99.90
32877;DHT22;19226;51.600;8.034;2022-09-09T18:51:46;17.30;99.90
32877;DHT22;19226;51.600;8.034;2022-09-09T18:54:19;17.30;99.90
32877;DHT22;19226;51.600;8.034;2022-09-09T18:56:47;17.30;99.90
32877;DHT22;19226;51.600;8.034;2022-09-09T18:59:16;17.30;99.90
32877;DHT22;19226;51.600;8.034;2022-09-09T19:01:46;17.20;99.90
32877;DHT22;19226;51.600;8.034;2022-09-09T19:04:13;17.20;99.90
32877;DHT22;19226;51.600;8.034;2022-09-09T19:06:41;17.10;99.90
32877;DHT22;19226;51.600;8.034;2022-09-09T19:09:12;17.10;99.90
32877;DHT22;19226;51.600;8.034;2022-09-09T19:11:39;17.10;99.90
32877;DHT22;19226;51.600;8.034;2022-09-09T19:14:06;17.10;99.90
32877;DHT22;19226;51.600;8.034;2022-09-09T19:16:36;17.10;99.90
32877;DHT22;19226;51.600;8.034;2022-09-09T19:19:08;17.10;99.90
32877;DHT22;19226;51.600;8.034;2022-09-09T19:21:37;17.10;99.90
32877;DHT22;19226;51.600;8.034;2022-09-09T19:26:41;17.10;99.90
32877;DHT22;19226;51.600;8.034;2022-09-09T19:29:17;17.10;99.90
32877;DHT22;19226;51.600;8.034;2022-09-09T19:31:45;17.00;99.90
32877;DHT22;19226;51.600;8.034;2022-09-09T19:34:13;17.00;99.90
32877;DHT22;19226;51.600;8.034;2022-09-09T19:36:40;17.00;99.90
32877;DHT22;19226;51.600;8.034;2022-09-09T19:39:07;17.00;99.90
32877;DHT22;19226;51.600;8.034;2022-09-09T19:41:34;16.90;99.90
32877;DHT22;19226;51.600;8.034;2022-09-09T19:44:06;16.90;99.90
32877;DHT22;19226;51.600;8.034;2022-09-09T19:46:39;16.90;99.90
32877;DHT22;19226;51.600;8.034;2022-09-09T19:49:10;16.90;99.90
32877;DHT22;19226;51.600;8.034;2022-09-09T19:51:36;16.90;99.90
32877;DHT22;19226;51.600;8.034;2022-09-09T19:54:05;16.90;99.90
32877;DHT22;19226;51.600;8.034;2022-09-09T19:56:36;16.80;99.90
32877;DHT22;19226;51.600;8.034;2022-09-09T19:59:04;16.70;99.90
32877;DHT22;19226;51.600;8.034;2022-09-09T20:01:39;16.70;99.90